createdAt,value
2024-01-09T00:01:53.616Z,98831.00
2024-01-09T00:04:20.268Z,98838.13
2024-01-09T00:06:46.938Z,98874.59
2024-01-09T00:09:13.656Z,98855.94
2024-01-09T00:11:40.358Z,98818.47
2024-01-09T00:14:07.069Z,98873.81
2024-01-09T00:16:33.826Z,98866.56
2024-01-09T00:19:00.638Z,98784.56
2024-01-09T00:21:27.365Z,98842.50
2024-01-09T00:23:54.208Z,98823.50
2024-01-09T00:26:24.165Z,98832.28
2024-01-09T00:28:50.906Z,98829.78
2024-01-09T00:31:17.570Z,98871.56
2024-01-09T00:33:44.425Z,98869.72
2024-01-09T00:36:11.403Z,98863.56
2024-01-09T00:38:38.110Z,98806.56
2024-01-09T00:41:04.937Z,98844.25
2024-01-09T00:43:31.759Z,98794.28
2024-01-09T00:45:58.403Z,98815.25
2024-01-09T00:48:25.508Z,98823.63
2024-01-09T00:50:52.344Z,98813.00
2024-01-09T00:53:19.128Z,98835.66
2024-01-09T00:55:45.850Z,98803.13
2024-01-09T00:58:12.559Z,98808.97
2024-01-09T01:00:39.279Z,98814.28
2024-01-09T01:03:05.978Z,98833.00
2024-01-09T01:05:34.400Z,98837.06
2024-01-09T01:08:01.339Z,98842.38
2024-01-09T01:10:27.991Z,98836.78
2024-01-09T01:12:54.730Z,98879.25
2024-01-09T01:15:21.428Z,98845.47
2024-01-09T01:17:48.175Z,98873.41
2024-01-09T01:20:14.997Z,98882.50
2024-01-09T01:22:42.268Z,98863.34
2024-01-09T01:25:10.240Z,98854.38
2024-01-09T01:27:37.007Z,98880.38
2024-01-09T01:30:04.039Z,98898.69
2024-01-09T01:32:30.855Z,98868.66
2024-01-09T01:34:57.746Z,98911.84
2024-01-09T01:37:24.618Z,98874.78
2024-01-09T01:39:51.395Z,98872.59
2024-01-09T01:42:18.134Z,98898.59
2024-01-09T01:44:44.926Z,98886.41
2024-01-09T01:47:12.098Z,98944.00
2024-01-09T01:49:39.058Z,98898.72
2024-01-09T01:52:06.518Z,98944.16
2024-01-09T01:54:35.636Z,98905.59
2024-01-09T01:57:04.980Z,98965.97
2024-01-09T01:59:35.389Z,98875.09
2024-01-09T02:02:03.719Z,98912.28
2024-01-09T02:04:31.081Z,98956.16
2024-01-09T02:06:58.539Z,98955.31
2024-01-09T02:09:25.175Z,98899.53
2024-01-09T02:11:51.877Z,98879.00
2024-01-09T02:14:18.619Z,98887.13
2024-01-09T02:16:45.562Z,98933.97
2024-01-09T02:19:12.284Z,98919.28
2024-01-09T02:21:38.976Z,98896.94
2024-01-09T02:24:05.704Z,98949.06
2024-01-09T02:26:47.303Z,98944.31
2024-01-09T02:29:24.949Z,98905.84
2024-01-09T02:31:53.508Z,98977.88
2024-01-09T02:34:21.850Z,98943.03
2024-01-09T02:36:48.698Z,98953.81
2024-01-09T02:39:15.596Z,98893.44
2024-01-09T02:41:42.584Z,98951.31
2024-01-09T02:44:09.336Z,98955.94
2024-01-09T02:46:36.247Z,98932.72
2024-01-09T02:49:03.098Z,98916.75
2024-01-09T02:51:29.937Z,98921.94
2024-01-09T02:53:56.594Z,98926.16
2024-01-09T02:56:24.297Z,98909.09
2024-01-09T02:58:51.459Z,98963.06
2024-01-09T03:01:18.339Z,98944.88
2024-01-09T03:03:45.318Z,98919.28
2024-01-09T03:06:12.214Z,98945.16
2024-01-09T03:08:39.039Z,98912.13
2024-01-09T03:11:05.751Z,98947.97
2024-01-09T03:13:32.383Z,98973.97
2024-01-09T03:15:59.219Z,98902.09
2024-01-09T03:18:26.101Z,98946.97
2024-01-09T03:20:55.294Z,98969.06
2024-01-09T03:23:21.970Z,98910.47
2024-01-09T03:25:48.642Z,98906.41
2024-01-09T03:28:15.311Z,98989.50
2024-01-09T03:30:42.202Z,98960.13
2024-01-09T03:33:09.368Z,98919.03
2024-01-09T03:35:36.653Z,98843.34
2024-01-09T03:38:03.582Z,98986.25
2024-01-09T03:40:30.363Z,98856.47
2024-01-09T03:42:57.093Z,98882.66
2024-01-09T03:45:25.338Z,98940.69
2024-01-09T03:47:52.168Z,98877.47
2024-01-09T03:50:19.345Z,98917.19
2024-01-09T03:52:46.207Z,99008.25
2024-01-09T03:55:13.272Z,98946.97
2024-01-09T03:57:40.334Z,98955.78
2024-01-09T04:00:08.037Z,98917.75
2024-01-09T04:02:37.612Z,99008.25
2024-01-09T04:05:05.120Z,98890.19
2024-01-09T04:07:31.840Z,99031.47
2024-01-09T04:09:58.697Z,98949.91
2024-01-09T04:12:25.843Z,98879.97
2024-01-09T04:14:52.607Z,98922.66
2024-01-09T04:17:19.277Z,98945.31
2024-01-09T04:19:46.160Z,98978.72
2024-01-09T04:22:12.896Z,98966.72
2024-01-09T04:24:39.633Z,98995.66
2024-01-09T04:27:06.489Z,98956.63
2024-01-09T04:29:33.272Z,98945.59
2024-01-09T04:32:00.051Z,98966.41
2024-01-09T04:34:27.391Z,98982.78
2024-01-09T04:36:54.043Z,98998.88
2024-01-09T04:39:21.088Z,98986.69
2024-01-09T04:41:47.813Z,98947.66
2024-01-09T04:44:15.602Z,98980.53
2024-01-09T04:46:42.493Z,98962.50
2024-01-09T04:49:16.054Z,98926.66
2024-01-09T04:51:48.653Z,98861.16
2024-01-09T04:54:15.528Z,98931.78
2024-01-09T04:56:42.554Z,99057.19
2024-01-09T04:59:10.342Z,98953.75
2024-01-09T05:01:40.413Z,98904.31
2024-01-09T05:04:10.500Z,98943.19
2024-01-09T05:06:37.975Z,98893.94
2024-01-09T05:09:05.118Z,98920.06
2024-01-09T05:11:32.130Z,98929.28
2024-01-09T05:13:59.626Z,99002.06
2024-01-09T05:16:28.586Z,98856.63
2024-01-09T05:19:01.362Z,98954.69
2024-01-09T05:21:28.308Z,98887.41
2024-01-09T05:23:55.406Z,98988.31
2024-01-09T05:26:25.403Z,98929.81
2024-01-09T05:28:53.898Z,98950.38
2024-01-09T05:31:21.858Z,99004.72
2024-01-09T05:33:49.015Z,99043.50
2024-01-09T05:36:23.365Z,99050.09
2024-01-09T05:38:53.538Z,99027.81
2024-01-09T05:41:21.988Z,99034.53
2024-01-09T05:43:49.818Z,98995.31
2024-01-09T05:46:16.778Z,99002.88
2024-01-09T05:48:44.036Z,99000.34
2024-01-09T05:51:11.456Z,99034.94
2024-01-09T05:53:38.846Z,99042.34
2024-01-09T05:56:07.435Z,99036.06
2024-01-09T05:58:34.773Z,99033.78
2024-01-09T06:01:01.919Z,99026.63
2024-01-09T06:03:28.671Z,99019.31
2024-01-09T06:05:55.672Z,99009.66
2024-01-09T06:08:22.836Z,99100.09
2024-01-09T06:10:49.592Z,99099.13
2024-01-09T06:13:16.223Z,99035.06
2024-01-09T06:15:43.096Z,99065.13
2024-01-09T06:18:09.858Z,99025.53
2024-01-09T06:20:36.745Z,99094.38
2024-01-09T06:23:03.553Z,99019.66
2024-01-09T06:25:30.372Z,99072.00
2024-01-09T06:27:57.036Z,99106.44
2024-01-09T06:30:24.130Z,99038.28
2024-01-09T06:32:50.882Z,99052.53
2024-01-09T06:35:17.809Z,99037.72
2024-01-09T06:37:45.159Z,99099.69
2024-01-09T06:40:12.098Z,99051.88
2024-01-09T06:42:40.476Z,99092.88
2024-01-09T06:45:07.617Z,99105.97
2024-01-09T06:47:35.764Z,99140.53
2024-01-09T06:50:06.178Z,99105.06
2024-01-09T06:52:34.360Z,99153.81
2024-01-09T06:55:01.115Z,99134.66
2024-01-09T06:57:27.896Z,99122.13
2024-01-09T06:59:54.589Z,99119.94
2024-01-09T07:02:22.212Z,99093.28
2024-01-09T07:04:49.148Z,99087.16
2024-01-09T07:07:16.005Z,99092.03
2024-01-09T07:09:42.618Z,99127.06
2024-01-09T07:12:10.476Z,99132.09
2024-01-09T07:14:37.862Z,99154.38
2024-01-09T07:17:05.276Z,99163.88
2024-01-09T07:19:32.162Z,99148.44
2024-01-09T07:21:58.898Z,99140.59
2024-01-09T07:24:25.873Z,99198.66
2024-01-09T07:26:52.629Z,99126.31
2024-01-09T07:29:20.654Z,99146.53
2024-01-09T07:31:48.774Z,99135.88
2024-01-09T07:34:15.890Z,99213.09
2024-01-09T07:36:44.085Z,99183.88
2024-01-09T07:39:14.000Z,99200.84
2024-01-09T07:41:40.953Z,99205.19
2024-01-09T07:44:08.063Z,99143.13
2024-01-09T07:46:34.745Z,99146.69
2024-01-09T07:49:01.486Z,99199.06
2024-01-09T07:51:28.291Z,99148.41
2024-01-09T07:53:54.994Z,99168.59
2024-01-09T07:56:22.950Z,99203.78
2024-01-09T07:58:49.734Z,99151.06
2024-01-09T08:01:17.847Z,99238.50
2024-01-09T08:03:44.778Z,99181.53
2024-01-09T08:06:18.628Z,99263.31
2024-01-09T08:08:48.838Z,99222.78
2024-01-09T08:11:17.830Z,99272.91
2024-01-09T08:13:44.943Z,99215.47
2024-01-09T08:16:11.587Z,99194.66
2024-01-09T08:18:39.134Z,99236.97
2024-01-09T08:21:06.729Z,99267.94
2024-01-09T08:23:33.990Z,99232.88
2024-01-09T08:26:00.674Z,99195.13
2024-01-09T08:28:27.381Z,99227.19
2024-01-09T08:30:55.145Z,99233.91
2024-01-09T08:33:24.983Z,99217.41
2024-01-09T08:35:53.343Z,99272.13
2024-01-09T08:38:20.056Z,99296.09
2024-01-09T08:40:47.571Z,99212.88
2024-01-09T08:43:14.341Z,99209.75
2024-01-09T08:45:42.093Z,99226.72
2024-01-09T08:48:08.956Z,99263.56
2024-01-09T08:50:35.751Z,99262.22
2024-01-09T08:53:02.488Z,99256.34
2024-01-09T08:55:29.227Z,99263.31
2024-01-09T08:57:55.940Z,99270.25
2024-01-09T09:00:22.620Z,99236.69
2024-01-09T09:02:49.478Z,99215.69
2024-01-09T09:05:16.444Z,99217.78
2024-01-09T09:07:43.409Z,99316.38
2024-01-09T09:10:10.354Z,99282.75
2024-01-09T09:12:37.025Z,99268.56
2024-01-09T09:15:04.300Z,99240.78
2024-01-09T09:17:32.360Z,99339.13
2024-01-09T09:19:59.167Z,99332.19
2024-01-09T09:22:27.200Z,99308.41
2024-01-09T09:24:54.130Z,99293.53
2024-01-09T09:27:20.932Z,99265.72
2024-01-09T09:29:47.720Z,99347.34
2024-01-09T09:32:14.561Z,99307.72
2024-01-09T09:34:44.747Z,99273.94
2024-01-09T09:37:13.781Z,99334.19
2024-01-09T09:39:40.601Z,99290.94
2024-01-09T09:42:09.367Z,99292.28
2024-01-09T09:44:38.380Z,99307.16
2024-01-09T09:47:06.618Z,99323.56
2024-01-09T09:49:35.832Z,99366.59
2024-01-09T09:52:02.773Z,99332.97
2024-01-09T09:54:30.472Z,99339.97
2024-01-09T09:56:57.147Z,99349.94
2024-01-09T09:59:23.907Z,99308.06
2024-01-09T10:01:51.332Z,99293.03
2024-01-09T10:04:35.417Z,99375.22
2024-01-09T10:07:06.433Z,99298.91
2024-01-09T10:09:36.159Z,99338.75
2024-01-09T10:12:02.985Z,99296.09
2024-01-09T10:14:29.698Z,99325.00
2024-01-09T10:16:56.711Z,99331.97
2024-01-09T10:19:24.421Z,99311.50
2024-01-09T10:21:52.320Z,99381.72
2024-01-09T10:24:19.135Z,99372.19
2024-01-09T10:26:46.362Z,99299.72
2024-01-09T10:29:13.917Z,99325.69
2024-01-09T10:31:45.952Z,99357.13
2024-01-09T10:34:12.849Z,99332.22
2024-01-09T10:36:39.653Z,99278.00
2024-01-09T10:39:07.593Z,99323.16
2024-01-09T10:41:34.754Z,99329.44
2024-01-09T10:44:03.121Z,99310.19
2024-01-09T10:46:31.060Z,99284.91
2024-01-09T10:48:59.036Z,99386.03
2024-01-09T10:51:26.147Z,99341.16
2024-01-09T10:53:53.665Z,99285.22
2024-01-09T10:56:24.897Z,99295.00
2024-01-09T10:58:51.887Z,99311.22
2024-01-09T11:01:18.737Z,99309.41
2024-01-09T11:03:45.725Z,99330.50
2024-01-09T11:06:17.550Z,99316.44
2024-01-09T11:08:50.586Z,99351.50
2024-01-09T11:11:20.549Z,99307.19
2024-01-09T11:13:49.868Z,99328.88
2024-01-09T11:16:18.992Z,99339.50
2024-01-09T11:18:47.568Z,99299.97
2024-01-09T11:21:14.603Z,99334.63
2024-01-09T11:23:44.659Z,99393.03
2024-01-09T11:26:14.996Z,99358.69
2024-01-09T11:28:44.502Z,99361.97
2024-01-09T11:31:14.682Z,99376.19
2024-01-09T11:33:44.021Z,99305.16
2024-01-09T11:36:15.867Z,99351.25
2024-01-09T11:38:46.647Z,99342.00
2024-01-09T11:41:14.564Z,99340.41
2024-01-09T11:44:05.906Z,99393.41
2024-01-09T11:46:38.436Z,99328.88
2024-01-09T11:49:07.773Z,99379.19
2024-01-09T11:51:35.578Z,99331.72
2024-01-09T11:54:03.700Z,99359.94
2024-01-09T11:56:31.080Z,99331.53
2024-01-09T11:58:58.748Z,99320.06
2024-01-09T12:01:27.764Z,99380.41
2024-01-09T12:03:56.450Z,99295.78
2024-01-09T12:06:31.098Z,99329.81
2024-01-09T12:08:58.455Z,99313.78
2024-01-09T12:11:25.234Z,99391.50
2024-01-09T12:14:02.519Z,99365.69
2024-01-09T12:16:31.039Z,99331.25
2024-01-09T12:18:59.458Z,99355.47
2024-01-09T12:21:31.758Z,99326.78
2024-01-09T12:24:20.039Z,99289.75
2024-01-09T12:26:50.799Z,99315.50
2024-01-09T12:29:17.821Z,99341.88
2024-01-09T12:31:44.991Z,99383.88
2024-01-09T12:34:12.953Z,99335.38
2024-01-09T12:36:40.910Z,99341.25
2024-01-09T12:39:12.457Z,99364.28
2024-01-09T12:41:42.466Z,99363.78
2024-01-09T12:44:11.000Z,99348.75
2024-01-09T12:46:37.745Z,99295.16
2024-01-09T12:49:04.668Z,99318.38
2024-01-09T12:51:33.724Z,99382.56
2024-01-09T12:54:00.824Z,99321.50
2024-01-09T12:56:28.350Z,99326.94
2024-01-09T12:58:55.240Z,99319.06
2024-01-09T13:01:22.074Z,99351.56
2024-01-09T13:03:52.124Z,99305.03
2024-01-09T13:06:19.017Z,99318.53
2024-01-09T13:08:45.763Z,99295.53
2024-01-09T13:11:12.502Z,99311.28
2024-01-09T13:13:41.890Z,99319.13
2024-01-09T13:16:08.867Z,99317.72
2024-01-09T13:18:36.186Z,99270.53
2024-01-09T13:21:04.125Z,99317.19
2024-01-09T13:26:03.130Z,99295.53
2024-01-09T13:28:30.380Z,99381.81
2024-01-09T13:30:59.107Z,99370.19
2024-01-09T13:33:26.762Z,99287.38
2024-01-09T13:35:53.916Z,99350.16
2024-01-09T13:38:20.742Z,99325.25
2024-01-09T13:40:49.530Z,99338.50
2024-01-09T13:43:16.387Z,99342.97
2024-01-09T13:45:43.926Z,99342.97
2024-01-09T13:48:11.771Z,99319.72
2024-01-09T13:51:48.812Z,99334.44
2024-01-09T13:53:29.645Z,99311.81
2024-01-09T13:55:57.207Z,99335.16
2024-01-09T13:58:24.125Z,99368.06
2024-01-09T14:00:51.012Z,99348.69
2024-01-09T14:03:18.831Z,99314.38
2024-01-09T14:05:45.719Z,99355.31
2024-01-09T14:08:12.478Z,99343.66
2024-01-09T14:10:39.415Z,99348.94
2024-01-09T14:13:07.222Z,99357.38
2024-01-09T14:15:34.965Z,99318.72
2024-01-09T14:18:02.220Z,99430.19
2024-01-09T14:20:30.268Z,99327.16
2024-01-09T14:22:57.226Z,99332.81
2024-01-09T14:25:24.055Z,99361.25
2024-01-09T14:27:50.841Z,99334.88
2024-01-09T14:30:20.075Z,99351.97
2024-01-09T14:32:47.851Z,99394.75
2024-01-09T14:35:14.865Z,99422.25
2024-01-09T14:37:41.735Z,99354.25
2024-01-09T14:40:12.977Z,99379.81
2024-01-09T14:42:40.784Z,99349.91
2024-01-09T14:45:10.893Z,99399.69
2024-01-09T14:47:38.363Z,99357.88
2024-01-09T14:50:06.692Z,99383.22
2024-01-09T14:52:33.480Z,99367.63
2024-01-09T14:55:00.224Z,99389.69
2024-01-09T14:57:26.988Z,99376.22
2024-01-09T14:59:54.980Z,99371.03
2024-01-09T15:02:21.916Z,99370.66
2024-01-09T15:04:48.778Z,99375.25
2024-01-09T15:07:15.693Z,99395.97
2024-01-09T15:09:42.491Z,99379.22
2024-01-09T15:12:09.296Z,99348.50
2024-01-09T15:14:35.950Z,99387.53
2024-01-09T15:17:02.711Z,99402.03
2024-01-09T15:19:29.501Z,99393.56
2024-01-09T15:21:57.788Z,99383.69
2024-01-09T15:24:25.204Z,99435.00
2024-01-09T15:26:51.995Z,99334.53
2024-01-09T15:29:18.675Z,99437.94
2024-01-09T15:31:45.385Z,99406.22
2024-01-09T15:34:14.061Z,99373.31
2024-01-09T15:36:44.278Z,99446.84
2024-01-09T15:39:11.861Z,99405.84
2024-01-09T15:41:38.558Z,99392.84
2024-01-09T15:44:08.832Z,99431.78
2024-01-09T15:46:35.836Z,99437.56
2024-01-09T15:49:03.183Z,99426.59
2024-01-09T15:51:32.232Z,99475.31
2024-01-09T15:54:02.299Z,99466.59
2024-01-09T15:56:29.831Z,99441.75
2024-01-09T15:58:56.723Z,99445.63
2024-01-09T16:01:25.496Z,99449.00
2024-01-09T16:03:54.556Z,99442.13
2024-01-09T16:06:21.578Z,99402.22
2024-01-09T16:08:52.024Z,99424.13
2024-01-09T16:11:19.654Z,99463.34
2024-01-09T16:13:47.556Z,99444.06
2024-01-09T16:16:24.841Z,99421.09
2024-01-09T16:18:52.108Z,99483.00
2024-01-09T16:21:19.000Z,99408.66
2024-01-09T16:23:46.788Z,99463.91
2024-01-09T16:26:15.071Z,99481.06
2024-01-09T16:28:42.005Z,99447.59
2024-01-09T16:31:09.436Z,99419.19
2024-01-09T16:33:37.491Z,99513.75
2024-01-09T16:36:05.628Z,99483.59
2024-01-09T16:38:32.322Z,99510.34
2024-01-09T16:40:59.254Z,99531.31
2024-01-09T16:43:25.945Z,99514.75
2024-01-09T16:45:53.606Z,99481.22
2024-01-09T16:50:49.944Z,99557.25
2024-01-09T16:53:16.658Z,99502.94
2024-01-09T16:56:07.985Z,99499.16
2024-01-09T16:59:10.500Z,99550.81
2024-01-09T17:01:49.626Z,99409.22
2024-01-09T17:04:17.513Z,99492.94
2024-01-09T17:06:44.501Z,99530.38
2024-01-09T17:09:12.728Z,99496.88
2024-01-09T17:11:42.542Z,99577.91
2024-01-09T17:14:09.523Z,99499.34
2024-01-09T17:16:43.417Z,99569.03
2024-01-09T17:19:10.348Z,99550.16
2024-01-09T17:21:37.001Z,99567.94
2024-01-09T17:24:07.892Z,99508.34
2024-01-09T17:26:34.619Z,99489.38
2024-01-09T17:29:01.340Z,99542.16
2024-01-09T17:31:28.580Z,99506.50
2024-01-09T17:33:55.312Z,99524.03
2024-01-09T17:36:22.670Z,99500.59
2024-01-09T17:38:49.474Z,99532.47
2024-01-09T17:41:16.309Z,99545.50
2024-01-09T17:43:43.351Z,99560.66
2024-01-09T17:46:10.420Z,99556.88
2024-01-09T17:48:37.558Z,99534.47
2024-01-09T17:51:04.605Z,99505.72
2024-01-09T17:53:31.405Z,99542.13
2024-01-09T17:56:08.363Z,99540.16
2024-01-09T17:58:35.200Z,99545.56
2024-01-09T18:01:02.823Z,99545.09
2024-01-09T18:03:29.915Z,99555.81
2024-01-09T18:05:58.648Z,99527.28
2024-01-09T18:08:27.207Z,99522.75
2024-01-09T18:10:55.542Z,99530.91
2024-01-09T18:13:23.776Z,99553.97
2024-01-09T18:15:50.299Z,99630.22
2024-01-09T18:18:19.225Z,99604.88
2024-01-09T18:20:47.499Z,99584.47
2024-01-09T18:23:15.193Z,99626.88
2024-01-09T18:25:42.006Z,99572.28
2024-01-09T18:28:08.720Z,99553.78
2024-01-09T18:30:36.572Z,99630.59
2024-01-09T18:33:05.546Z,99554.25
2024-01-09T18:35:33.636Z,99588.72
2024-01-09T18:38:01.770Z,99571.59
2024-01-09T18:40:28.446Z,99555.16
2024-01-09T18:42:55.486Z,99589.22
2024-01-09T18:45:22.567Z,99604.31
2024-01-09T18:47:49.304Z,99601.66
2024-01-09T18:50:18.196Z,99647.34
2024-01-09T18:52:45.033Z,99609.16
2024-01-09T18:55:11.712Z,99607.47
2024-01-09T18:57:38.361Z,99558.78
2024-01-09T19:00:06.927Z,99575.28
2024-01-09T19:02:34.327Z,99612.25
2024-01-09T19:05:01.327Z,99638.16
2024-01-09T19:07:28.112Z,99639.84
2024-01-09T19:09:54.866Z,99643.66
2024-01-09T19:12:21.580Z,99608.75
2024-01-09T19:14:48.426Z,99598.78
2024-01-09T19:17:15.156Z,99591.41
2024-01-09T19:19:46.618Z,99585.28
2024-01-09T19:22:14.956Z,99615.19
2024-01-09T19:24:42.165Z,99600.81
2024-01-09T19:27:09.039Z,99652.56
2024-01-09T19:29:35.811Z,99570.03
2024-01-09T19:32:02.558Z,99624.97
2024-01-09T19:34:29.348Z,99625.19
2024-01-09T19:36:56.072Z,99643.38
2024-01-09T19:39:22.982Z,99705.72
2024-01-09T19:41:49.654Z,99643.03
2024-01-09T19:44:16.793Z,99623.78
2024-01-09T19:46:43.789Z,99617.88
2024-01-09T19:49:11.714Z,99592.44
2024-01-09T19:51:39.228Z,99676.63
2024-01-09T19:54:10.697Z,99722.69
2024-01-09T19:56:39.356Z,99685.91
2024-01-09T19:59:07.826Z,99651.94
2024-01-09T20:01:35.851Z,99629.63
2024-01-09T20:04:03.057Z,99659.34
2024-01-09T20:06:29.983Z,99642.09
2024-01-09T20:08:56.792Z,99696.28
2024-01-09T20:11:28.626Z,99624.66
2024-01-09T20:13:57.784Z,99699.78
2024-01-09T20:16:24.484Z,99599.34
2024-01-09T20:18:51.406Z,99616.25
2024-01-09T20:21:18.362Z,99642.31
2024-01-09T20:23:45.402Z,99667.69
2024-01-09T20:26:28.334Z,99691.31
2024-01-09T20:28:56.053Z,99662.22
2024-01-09T20:31:23.349Z,99703.81
2024-01-09T20:33:51.959Z,99616.34
2024-01-09T20:36:19.496Z,99633.28
2024-01-09T20:38:46.450Z,99638.47
2024-01-09T20:41:13.150Z,99640.59
2024-01-09T20:43:39.946Z,99604.25
2024-01-09T20:46:08.704Z,99671.84
2024-01-09T20:48:36.489Z,99659.03
2024-01-09T20:51:08.162Z,99670.34
2024-01-09T20:53:35.542Z,99666.22
2024-01-09T20:56:03.528Z,99663.78
2024-01-09T20:58:30.362Z,99642.56
2024-01-09T21:00:57.307Z,99700.38
2024-01-09T21:03:26.696Z,99654.22
2024-01-09T21:05:53.627Z,99638.56
2024-01-09T21:08:20.421Z,99678.09
2024-01-09T21:10:47.195Z,99671.50
2024-01-09T21:13:13.842Z,99632.22
2024-01-09T21:15:44.377Z,99686.94
2024-01-09T21:18:15.003Z,99680.81
2024-01-09T21:20:42.031Z,99676.38
2024-01-09T21:23:09.063Z,99750.00
2024-01-09T21:25:36.953Z,99653.41
2024-01-09T21:28:03.871Z,99677.13
2024-01-09T21:30:30.567Z,99646.41
2024-01-09T21:32:57.347Z,99677.34
2024-01-09T21:35:25.470Z,99754.00
2024-01-09T21:37:55.741Z,99723.94
2024-01-09T21:40:22.477Z,99695.66
2024-01-09T21:42:51.600Z,99704.56
2024-01-09T21:45:18.408Z,99658.69
2024-01-09T21:47:46.641Z,99741.72
2024-01-09T21:50:13.476Z,99740.59
2024-01-09T21:52:40.813Z,99734.34
2024-01-09T21:55:08.736Z,99745.75
2024-01-09T21:57:35.456Z,99682.94
2024-01-09T22:00:02.579Z,99672.91
2024-01-09T22:02:38.705Z,99745.44
2024-01-09T22:05:05.858Z,99667.06
2024-01-09T22:07:32.730Z,99688.34
2024-01-09T22:09:59.800Z,99659.53
2024-01-09T22:12:27.142Z,99753.50
2024-01-09T22:14:53.835Z,99649.50
2024-01-09T22:17:20.648Z,99735.16
2024-01-09T22:19:47.896Z,99651.47
2024-01-09T22:22:14.817Z,99759.50
2024-01-09T22:24:42.074Z,99688.44
2024-01-09T22:27:08.799Z,99675.38
2024-01-09T22:29:37.752Z,99718.50
2024-01-09T22:32:06.155Z,99725.00
2024-01-09T23:50:48.705Z,99634.03
2024-01-09T23:53:15.614Z,99735.47
2024-01-09T23:55:42.637Z,99678.59
2024-01-09T23:58:11.844Z,99736.31
